createdAt,value
2019-05-05T00:00:20.901Z,1.58
2019-05-05T00:01:20.892Z,1.59
2019-05-05T00:02:20.880Z,1.58
2019-05-05T00:03:20.909Z,1.58
2019-05-05T00:04:20.850Z,1.55
2019-05-05T00:05:20.865Z,1.54
2019-05-05T00:06:20.840Z,1.51
2019-05-05T00:07:20.820Z,1.50
2019-05-05T00:08:20.833Z,1.48
2019-05-05T00:09:20.800Z,1.50
2019-05-05T00:10:20.800Z,1.50
2019-05-05T00:11:20.790Z,1.52
2019-05-05T00:12:20.772Z,1.52
2019-05-05T00:13:20.850Z,1.52
2019-05-05T00:14:20.759Z,1.52
2019-05-05T00:15:20.742Z,1.52
2019-05-05T00:16:20.739Z,1.48
2019-05-05T00:17:20.725Z,1.48
2019-05-05T00:18:20.709Z,1.45
2019-05-05T00:19:30.744Z,1.42
2019-05-05T00:20:21.679Z,1.45
2019-05-05T00:21:20.670Z,1.47
2019-05-05T00:22:20.679Z,1.45
2019-05-05T00:23:20.663Z,1.48
2019-05-05T00:24:20.648Z,1.48
2019-05-05T00:25:20.638Z,1.50
2019-05-05T00:26:20.628Z,1.50
2019-05-05T00:27:20.618Z,1.47
2019-05-05T00:28:20.598Z,1.47
2019-05-05T00:29:20.691Z,1.48
2019-05-05T00:30:20.588Z,1.48
2019-05-05T00:31:20.606Z,1.48
2019-05-05T00:32:20.553Z,1.50
2019-05-05T00:33:20.547Z,1.51
2019-05-05T00:34:20.547Z,1.51
2019-05-05T00:35:20.561Z,1.51
2019-05-05T00:36:20.526Z,1.52
2019-05-05T00:37:20.508Z,1.51
2019-05-05T00:38:20.487Z,1.50
2019-05-05T00:39:20.487Z,1.48
2019-05-05T00:40:20.485Z,1.48
2019-05-05T00:41:20.479Z,1.47
2019-05-05T00:42:20.447Z,1.45
2019-05-05T00:43:20.437Z,1.45
2019-05-05T00:44:20.436Z,1.45
2019-05-05T00:45:20.417Z,1.47
2019-05-05T00:46:20.517Z,1.47
2019-05-05T00:47:20.410Z,1.47
2019-05-05T00:48:20.386Z,1.50
2019-05-05T00:49:20.366Z,1.48
2019-05-05T00:50:20.377Z,1.48
2019-05-05T00:51:20.378Z,1.50
2019-05-05T00:52:20.396Z,1.50
2019-05-05T00:53:20.336Z,1.50
2019-05-05T00:54:20.339Z,1.48
2019-05-05T00:55:20.296Z,1.50
2019-05-05T00:56:20.305Z,1.47
2019-05-05T00:57:20.386Z,1.48
2019-05-05T00:58:20.265Z,1.48
2019-05-05T00:59:20.256Z,1.48
2019-05-05T01:00:20.257Z,1.50
2019-05-05T01:01:20.246Z,1.51
2019-05-05T01:02:20.336Z,1.52
2019-05-05T01:03:20.235Z,1.54
2019-05-05T01:04:20.238Z,1.54
2019-05-05T01:05:20.216Z,1.54
2019-05-05T01:06:20.191Z,1.54
2019-05-05T01:07:20.204Z,1.52
2019-05-05T01:08:20.225Z,1.58
2019-05-05T01:09:20.156Z,1.58
2019-05-05T01:10:20.168Z,1.59
2019-05-05T01:11:20.144Z,1.54
2019-05-05T01:12:20.123Z,1.50
2019-05-05T01:13:20.167Z,1.48
2019-05-05T01:14:20.104Z,1.47
2019-05-05T01:15:20.104Z,1.44
2019-05-05T01:16:20.094Z,1.42
2019-05-05T01:17:20.085Z,1.45
2019-05-05T01:18:20.088Z,1.47
2019-05-05T01:19:20.064Z,1.47
2019-05-05T01:20:20.057Z,1.47
2019-05-05T01:21:20.033Z,1.50
2019-05-05T01:22:20.023Z,1.48
2019-05-05T01:23:20.083Z,1.51
2019-05-05T01:24:20.012Z,1.50
2019-05-05T01:25:20.003Z,1.50
2019-05-05T01:26:19.976Z,1.48
2019-05-05T01:27:19.978Z,1.47
2019-05-05T01:28:20.014Z,1.47
2019-05-05T01:29:19.966Z,1.45
2019-05-05T01:30:19.952Z,1.47
2019-05-05T01:31:19.932Z,1.47
2019-05-05T01:32:19.903Z,1.48
2019-05-05T01:33:19.916Z,1.45
2019-05-05T01:34:19.986Z,1.44
2019-05-05T01:35:19.990Z,1.42
2019-05-05T01:36:19.874Z,1.44
2019-05-05T01:37:19.874Z,1.44
2019-05-05T01:38:24.811Z,1.44
2019-05-05T01:39:19.951Z,1.45
2019-05-05T01:40:19.834Z,1.42
2019-05-05T01:41:19.835Z,1.40
2019-05-05T01:42:19.804Z,1.40
2019-05-05T01:43:19.793Z,1.41
2019-05-05T01:44:19.791Z,1.41
2019-05-05T01:45:19.862Z,1.42
2019-05-05T01:46:19.751Z,1.44
2019-05-05T01:47:19.762Z,1.45
2019-05-05T01:48:19.744Z,1.47
2019-05-05T01:49:19.812Z,1.50
2019-05-05T01:50:21.442Z,1.50
2019-05-05T01:51:19.734Z,1.51
2019-05-05T01:52:19.708Z,1.51
2019-05-05T01:53:19.691Z,1.52
2019-05-05T01:54:19.671Z,1.52
2019-05-05T01:55:19.750Z,1.52
2019-05-05T01:56:19.659Z,1.54
2019-05-05T01:57:19.649Z,1.58
2019-05-05T01:58:19.621Z,1.55
2019-05-05T01:59:19.634Z,1.52
2019-05-05T02:00:19.710Z,1.48
2019-05-05T02:01:19.613Z,1.47
2019-05-05T02:02:19.591Z,1.44
2019-05-05T02:03:19.580Z,1.42
2019-05-05T02:04:19.580Z,1.42
2019-05-05T02:05:19.559Z,1.40
2019-05-05T02:06:19.560Z,1.37
2019-05-05T02:07:19.541Z,1.37
2019-05-05T02:08:19.529Z,1.37
2019-05-05T02:09:19.530Z,1.34
2019-05-05T02:10:19.621Z,1.34
2019-05-05T02:11:19.514Z,1.34
2019-05-05T02:12:19.479Z,1.34
2019-05-05T02:13:19.460Z,1.33
2019-05-05T02:14:19.471Z,1.32
2019-05-05T02:15:19.462Z,1.30
2019-05-05T02:16:19.532Z,1.27
2019-05-05T02:17:19.440Z,1.24
2019-05-05T02:18:19.408Z,1.24
2019-05-05T02:19:19.399Z,1.23
2019-05-05T02:20:28.752Z,1.22
2019-05-05T02:21:20.399Z,1.22
2019-05-05T02:22:19.378Z,1.18
2019-05-05T02:23:19.377Z,1.16
2019-05-05T02:24:19.348Z,1.14
2019-05-05T02:25:19.428Z,1.12
2019-05-05T02:26:19.445Z,1.11
2019-05-05T02:27:19.775Z,1.09
2019-05-05T02:28:19.318Z,1.08
2019-05-05T02:29:19.318Z,1.06
2019-05-05T02:30:19.289Z,1.05
2019-05-05T02:31:19.377Z,1.04
2019-05-05T02:32:19.282Z,1.04
2019-05-05T02:33:19.358Z,1.04
2019-05-05T02:34:19.252Z,1.00
2019-05-05T02:35:19.238Z,0.98
2019-05-05T02:36:19.278Z,0.98
2019-05-05T02:37:19.217Z,0.97
2019-05-05T02:38:19.209Z,0.96
2019-05-05T02:39:19.278Z,0.94
2019-05-05T02:40:19.199Z,0.93
2019-05-05T02:41:19.203Z,0.94
2019-05-05T02:42:19.238Z,0.91
2019-05-05T02:43:19.156Z,0.90
2019-05-05T02:44:19.147Z,0.87
2019-05-05T02:45:19.137Z,0.86
2019-05-05T02:46:19.122Z,0.84
2019-05-05T02:47:19.209Z,0.83
2019-05-05T02:48:19.106Z,0.80
2019-05-05T02:49:19.100Z,0.80
2019-05-05T02:50:19.160Z,0.80
2019-05-05T02:51:19.071Z,0.79
2019-05-05T02:52:19.060Z,0.78
2019-05-05T02:53:19.136Z,0.76
2019-05-05T02:54:19.045Z,0.73
2019-05-05T02:55:19.026Z,0.73
2019-05-05T02:56:19.015Z,0.73
2019-05-05T02:57:19.014Z,0.72
2019-05-05T02:58:18.986Z,0.70
2019-05-05T02:59:19.055Z,0.70
2019-05-05T03:00:18.975Z,0.72
2019-05-05T03:01:18.964Z,0.72
2019-05-05T03:02:18.944Z,0.70
2019-05-05T03:03:18.935Z,0.70
2019-05-05T03:04:18.915Z,0.70
2019-05-05T03:05:18.916Z,0.72
2019-05-05T03:06:18.994Z,0.72
2019-05-05T03:07:18.894Z,0.72
2019-05-05T03:08:18.883Z,0.70
2019-05-05T03:09:18.887Z,0.68
2019-05-05T03:10:18.854Z,0.66
2019-05-05T03:11:18.854Z,0.68
2019-05-05T03:12:18.854Z,0.66
2019-05-05T03:13:18.837Z,0.65
2019-05-05T03:14:18.834Z,0.62
2019-05-05T03:15:18.813Z,0.65
2019-05-05T03:16:18.812Z,0.62
2019-05-05T03:17:18.792Z,0.62
2019-05-05T03:18:18.832Z,0.61
2019-05-05T03:19:18.773Z,0.58
2019-05-05T03:20:18.753Z,0.57
2019-05-05T03:21:18.754Z,0.57
2019-05-05T03:22:18.722Z,0.57
2019-05-05T03:23:18.745Z,0.57
2019-05-05T03:24:18.802Z,0.55
2019-05-05T03:25:18.692Z,0.53
2019-05-05T03:26:18.692Z,0.53
2019-05-05T03:27:18.681Z,0.51
2019-05-05T03:28:18.681Z,0.51
2019-05-05T03:29:18.665Z,0.51
2019-05-05T03:30:18.743Z,0.49
2019-05-05T03:31:18.653Z,0.49
2019-05-05T03:32:18.633Z,0.47
2019-05-05T03:33:18.623Z,0.46
2019-05-05T03:34:18.611Z,0.44
2019-05-05T03:35:18.612Z,0.44
2019-05-05T03:36:18.572Z,0.44
2019-05-05T03:37:18.581Z,0.47
2019-05-05T03:38:18.561Z,0.46
2019-05-05T03:39:18.574Z,0.46
2019-05-05T03:40:18.540Z,0.47
2019-05-05T03:41:18.621Z,0.46
2019-05-05T03:42:18.512Z,0.44
2019-05-05T03:43:18.523Z,0.42
2019-05-05T03:44:18.490Z,0.42
2019-05-05T03:45:18.531Z,0.41
2019-05-05T03:46:18.490Z,0.41
2019-05-05T03:47:18.460Z,0.38
2019-05-05T03:48:18.456Z,0.38
2019-05-05T03:49:18.454Z,0.39
2019-05-05T03:50:18.441Z,0.38
2019-05-05T03:51:21.122Z,0.38
2019-05-05T03:52:18.400Z,0.35
2019-05-05T03:53:18.409Z,0.35
2019-05-05T03:54:18.379Z,0.35
2019-05-05T03:55:18.392Z,0.35
2019-05-05T03:56:18.439Z,0.32
2019-05-05T03:57:21.340Z,0.32
2019-05-05T03:58:18.366Z,0.29
2019-05-05T03:59:18.347Z,0.28
2019-05-05T04:00:18.331Z,0.28
2019-05-05T04:01:18.409Z,0.26
2019-05-05T04:02:18.298Z,0.26
2019-05-05T04:03:18.299Z,0.26
2019-05-05T04:04:18.279Z,0.26
2019-05-05T04:05:18.279Z,0.26
2019-05-05T04:06:18.362Z,0.26
2019-05-05T04:07:18.257Z,0.24
2019-05-05T04:08:18.243Z,0.23
2019-05-05T04:09:18.229Z,0.23
2019-05-05T04:10:18.218Z,0.23
2019-05-05T04:11:18.218Z,0.24
2019-05-05T04:12:18.289Z,0.24
2019-05-05T04:13:18.207Z,0.24
2019-05-05T04:14:18.628Z,0.24
2019-05-05T04:15:18.157Z,0.26
2019-05-05T04:16:18.248Z,0.28
2019-05-05T04:17:18.136Z,0.28
2019-05-05T04:18:18.127Z,0.29
2019-05-05T04:19:18.127Z,0.29
2019-05-05T04:20:18.117Z,0.31
2019-05-05T04:21:30.125Z,0.29
2019-05-05T04:22:19.175Z,0.31
2019-05-05T04:23:18.096Z,0.35
2019-05-05T04:24:18.069Z,0.36
2019-05-05T04:25:18.056Z,0.41
2019-05-05T04:26:18.070Z,0.41
2019-05-05T04:27:18.037Z,0.42
2019-05-05T04:28:18.026Z,0.41
2019-05-05T04:29:18.015Z,0.42
2019-05-05T04:30:18.016Z,0.44
2019-05-05T04:31:18.005Z,0.44
2019-05-05T04:32:18.078Z,0.44
2019-05-05T04:33:17.975Z,0.46
2019-05-05T04:34:17.956Z,0.47
2019-05-05T04:35:17.956Z,0.46
2019-05-05T04:36:17.945Z,0.47
2019-05-05T04:37:17.943Z,0.49
2019-05-05T04:38:18.005Z,0.49
2019-05-05T04:39:17.928Z,0.49
2019-05-05T04:40:17.919Z,0.50
2019-05-05T04:41:17.892Z,0.50
2019-05-05T04:42:17.966Z,0.50
2019-05-05T04:43:17.964Z,0.49
2019-05-05T04:44:18.088Z,0.51
2019-05-05T04:45:17.844Z,0.53
2019-05-05T04:46:17.834Z,0.57
2019-05-05T04:47:17.833Z,0.58
2019-05-05T04:48:17.884Z,0.58
2019-05-05T04:49:17.817Z,0.58
2019-05-05T04:50:18.366Z,0.61
2019-05-05T04:51:17.785Z,0.61
2019-05-05T04:52:17.779Z,0.62
2019-05-05T04:53:17.833Z,0.62
2019-05-05T04:54:17.756Z,0.65
2019-05-05T04:55:17.737Z,0.66
2019-05-05T04:56:17.814Z,0.68
2019-05-05T04:57:17.736Z,0.70
2019-05-05T04:58:17.804Z,0.72
2019-05-05T04:59:17.783Z,0.75
2019-05-05T05:00:17.683Z,0.75
2019-05-05T05:01:17.663Z,0.78
2019-05-05T05:02:17.673Z,0.79
2019-05-05T05:03:17.651Z,0.83
2019-05-05T05:04:17.736Z,0.86
2019-05-05T05:05:17.653Z,0.90
2019-05-05T05:06:17.643Z,0.93
2019-05-05T05:07:17.601Z,0.97
2019-05-05T05:08:17.611Z,0.98
2019-05-05T05:09:17.591Z,1.02
2019-05-05T05:10:17.579Z,1.05
2019-05-05T05:11:17.573Z,1.08
2019-05-05T05:12:17.563Z,1.09
2019-05-05T05:13:17.555Z,1.11
2019-05-05T05:14:17.542Z,1.11
2019-05-05T05:15:17.604Z,1.14
2019-05-05T05:16:17.525Z,1.20
2019-05-05T05:17:19.677Z,1.30
2019-05-05T05:18:17.501Z,1.42
2019-05-05T05:19:17.577Z,1.62
2019-05-05T05:20:17.483Z,1.86
2019-05-05T05:21:17.463Z,2.09
2019-05-05T05:22:17.451Z,2.36
2019-05-05T05:23:17.451Z,2.74
2019-05-05T05:24:17.434Z,3.00
2019-05-05T05:25:17.492Z,3.26
2019-05-05T05:26:17.411Z,3.55
2019-05-05T05:27:17.396Z,3.84
2019-05-05T05:28:17.405Z,4.18
2019-05-05T05:29:17.371Z,4.48
2019-05-05T05:30:17.373Z,4.73
2019-05-05T05:31:17.440Z,4.99
2019-05-05T05:32:17.340Z,5.22
2019-05-05T05:33:17.330Z,5.56
2019-05-05T05:34:17.311Z,5.82
2019-05-05T05:35:17.402Z,6.12
2019-05-05T05:36:17.309Z,6.38
2019-05-05T05:37:17.303Z,6.66
2019-05-05T05:38:17.281Z,6.89
2019-05-05T05:39:17.281Z,6.80
2019-05-05T05:40:17.353Z,6.56
2019-05-05T05:41:17.260Z,6.41
2019-05-05T05:42:17.229Z,6.28
2019-05-05T05:43:17.259Z,6.28
2019-05-05T05:44:17.218Z,6.30
2019-05-05T05:45:17.298Z,6.28
2019-05-05T05:46:17.189Z,6.46
2019-05-05T05:47:17.179Z,6.74
2019-05-05T05:48:17.160Z,7.09
2019-05-05T05:49:17.159Z,7.42
2019-05-05T05:50:17.162Z,7.87
2019-05-05T05:51:19.387Z,8.20
2019-05-05T05:52:19.181Z,8.52
2019-05-05T05:53:17.119Z,8.81
2019-05-05T05:54:17.099Z,8.96
2019-05-05T05:55:17.189Z,9.05
2019-05-05T05:56:17.093Z,8.87
2019-05-05T05:57:17.086Z,8.37
2019-05-05T05:58:17.086Z,7.75
2019-05-05T05:59:17.060Z,7.46
2019-05-05T06:00:17.121Z,7.55
2019-05-05T06:01:17.042Z,7.63
2019-05-05T06:02:17.010Z,7.57
2019-05-05T06:03:17.009Z,7.61
2019-05-05T06:04:16.999Z,7.69
2019-05-05T06:05:16.968Z,7.60
2019-05-05T06:06:17.058Z,7.52
2019-05-05T06:07:16.968Z,7.55
2019-05-05T06:08:16.956Z,7.69
2019-05-05T06:09:16.952Z,7.82
2019-05-05T06:10:24.328Z,7.86
2019-05-05T06:11:18.016Z,7.79
2019-05-05T06:12:16.908Z,7.55
2019-05-05T06:13:16.899Z,6.91
2019-05-05T06:14:16.898Z,6.76
2019-05-05T06:15:16.887Z,6.70
2019-05-05T06:16:16.881Z,6.92
2019-05-05T06:17:16.947Z,7.28
2019-05-05T06:18:16.848Z,7.35
2019-05-05T06:19:16.838Z,7.50
2019-05-05T06:20:16.831Z,7.58
2019-05-05T06:21:16.817Z,7.68
2019-05-05T06:22:28.090Z,7.79
2019-05-05T06:23:17.888Z,8.01
2019-05-05T06:24:16.788Z,8.26
2019-05-05T06:25:16.790Z,8.48
2019-05-05T06:26:16.758Z,8.74
2019-05-05T06:27:16.837Z,9.02
2019-05-05T06:28:16.753Z,8.80
2019-05-05T06:29:16.728Z,8.47
2019-05-05T06:30:16.717Z,8.02
2019-05-05T06:31:16.707Z,7.34
2019-05-05T06:32:16.688Z,6.89
2019-05-05T06:33:16.788Z,6.54
2019-05-05T06:34:16.657Z,6.28
2019-05-05T06:35:16.649Z,6.06
2019-05-05T06:36:16.638Z,5.86
2019-05-05T06:37:16.658Z,5.76
2019-05-05T06:38:16.636Z,5.68
2019-05-05T06:39:16.637Z,5.58
2019-05-05T06:40:16.615Z,5.43
2019-05-05T06:41:16.610Z,5.39
2019-05-05T06:42:16.577Z,5.38
2019-05-05T06:43:16.577Z,5.39
2019-05-05T06:44:16.558Z,5.31
2019-05-05T06:45:16.637Z,5.21
2019-05-05T06:46:16.551Z,5.09
2019-05-05T06:47:16.528Z,5.03
2019-05-05T06:48:16.508Z,5.07
2019-05-05T06:49:16.507Z,5.42
2019-05-05T06:50:16.487Z,5.67
2019-05-05T06:51:16.530Z,5.65
2019-05-05T06:52:16.470Z,5.53
2019-05-05T06:53:16.549Z,5.53
2019-05-05T06:54:16.437Z,5.53
2019-05-05T06:55:16.463Z,5.81
2019-05-05T06:56:16.428Z,6.14
2019-05-05T06:57:16.418Z,6.48
2019-05-05T06:58:16.412Z,6.74
2019-05-05T06:59:16.488Z,6.85
2019-05-05T07:00:16.393Z,6.79
2019-05-05T07:01:16.378Z,6.58
2019-05-05T07:02:16.366Z,6.48
2019-05-05T07:03:16.364Z,6.38
2019-05-05T07:04:16.448Z,6.46
2019-05-05T07:05:16.341Z,6.66
2019-05-05T07:06:16.328Z,6.77
2019-05-05T07:07:16.312Z,6.95
2019-05-05T07:08:16.311Z,7.03
2019-05-05T07:09:16.288Z,6.95
2019-05-05T07:10:16.359Z,6.77
2019-05-05T07:11:16.289Z,6.43
2019-05-05T07:12:16.258Z,6.37
2019-05-05T07:13:16.230Z,6.31
2019-05-05T07:14:16.219Z,6.31
2019-05-05T07:15:16.299Z,6.33
2019-05-05T07:16:16.210Z,6.38
2019-05-05T07:17:16.221Z,6.66
2019-05-05T07:18:16.198Z,6.79
2019-05-05T07:19:16.179Z,6.87
2019-05-05T07:20:16.249Z,6.91
2019-05-05T07:21:16.270Z,6.92
2019-05-05T07:22:17.801Z,6.87
2019-05-05T07:23:16.140Z,6.73
2019-05-05T07:24:16.131Z,6.61
2019-05-05T07:25:16.124Z,6.52
2019-05-05T07:26:16.100Z,6.44
2019-05-05T07:27:16.214Z,6.43
2019-05-05T07:28:16.070Z,6.37
2019-05-05T07:29:18.078Z,6.30
2019-05-05T07:30:16.068Z,6.21
2019-05-05T07:31:16.040Z,6.19
2019-05-05T07:32:16.149Z,6.14
2019-05-05T07:33:16.040Z,6.09
2019-05-05T07:34:16.000Z,6.04
2019-05-05T07:35:16.027Z,6.04
2019-05-05T07:36:15.990Z,6.09
2019-05-05T07:37:15.980Z,6.14
2019-05-05T07:38:15.983Z,6.19
2019-05-05T07:39:15.980Z,6.19
2019-05-05T07:40:16.044Z,6.21
2019-05-05T07:41:16.020Z,6.18
2019-05-05T07:42:15.933Z,6.18
2019-05-05T07:43:15.920Z,6.21
2019-05-05T07:44:25.701Z,6.27
2019-05-05T07:45:22.574Z,6.31
2019-05-05T07:46:16.961Z,6.34
2019-05-05T07:47:15.870Z,6.36
2019-05-05T07:48:15.850Z,6.36
2019-05-05T07:49:15.861Z,6.37
2019-05-05T07:50:28.531Z,6.41
2019-05-05T07:51:16.901Z,6.46
2019-05-05T07:52:15.830Z,6.52
2019-05-05T07:53:17.912Z,6.56
2019-05-05T07:54:15.811Z,6.59
2019-05-05T07:55:15.795Z,6.52
2019-05-05T07:56:15.781Z,6.46
2019-05-05T07:57:15.842Z,6.44
2019-05-05T07:58:15.751Z,6.48
2019-05-05T07:59:15.741Z,6.52
2019-05-05T08:00:15.741Z,6.52
2019-05-05T08:01:15.721Z,6.56
2019-05-05T08:02:15.794Z,6.58
2019-05-05T08:03:15.774Z,6.62
2019-05-05T08:04:15.692Z,6.66
2019-05-05T08:05:15.681Z,6.66
2019-05-05T08:06:15.662Z,6.69
2019-05-05T08:07:15.679Z,6.73
2019-05-05T08:08:15.722Z,6.76
2019-05-05T08:09:15.633Z,6.80
2019-05-05T08:10:15.613Z,6.77
2019-05-05T08:11:15.602Z,6.74
2019-05-05T08:12:15.694Z,6.73
2019-05-05T08:13:15.678Z,6.71
2019-05-05T08:14:15.683Z,6.70
2019-05-05T08:15:15.552Z,6.64
2019-05-05T08:16:15.552Z,6.59
2019-05-05T08:17:15.546Z,6.59
2019-05-05T08:18:15.532Z,6.62
2019-05-05T08:19:15.527Z,6.69
2019-05-05T08:20:15.583Z,6.76
2019-05-05T08:21:15.507Z,6.81
2019-05-05T08:22:15.495Z,6.87
2019-05-05T08:23:29.065Z,6.91
2019-05-05T08:24:16.556Z,6.87
2019-05-05T08:25:15.453Z,6.87
2019-05-05T08:26:15.466Z,6.87
2019-05-05T08:27:15.458Z,6.84
2019-05-05T08:28:15.524Z,6.89
2019-05-05T08:29:15.426Z,6.91
2019-05-05T08:30:15.404Z,6.92
2019-05-05T08:31:15.474Z,6.97
2019-05-05T08:32:15.398Z,7.06
2019-05-05T08:33:15.373Z,7.17
2019-05-05T08:34:15.369Z,7.28
2019-05-05T08:35:15.367Z,7.37
2019-05-05T08:36:15.448Z,7.27
2019-05-05T08:37:15.314Z,7.13
2019-05-05T08:38:15.327Z,7.09
2019-05-05T08:39:15.313Z,7.15
2019-05-05T08:40:15.294Z,7.21
2019-05-05T08:41:15.284Z,7.31
2019-05-05T08:42:15.364Z,7.40
2019-05-05T08:43:15.264Z,7.49
2019-05-05T08:44:17.882Z,7.63
2019-05-05T08:45:15.324Z,7.79
2019-05-05T08:46:15.234Z,7.89
2019-05-05T08:47:15.238Z,7.93
2019-05-05T08:48:15.204Z,8.00
2019-05-05T08:49:15.207Z,8.05
2019-05-05T08:50:15.275Z,8.11
2019-05-05T08:51:15.168Z,8.15
2019-05-05T08:52:15.155Z,8.22
2019-05-05T08:53:15.158Z,8.33
2019-05-05T08:54:15.135Z,8.44
2019-05-05T08:55:15.215Z,8.52
2019-05-05T08:56:15.138Z,8.58
2019-05-05T08:57:15.130Z,8.65
2019-05-05T08:58:15.095Z,8.74
2019-05-05T08:59:15.085Z,8.81
2019-05-05T09:00:15.089Z,8.84
2019-05-05T09:01:15.139Z,8.84
2019-05-05T09:02:15.165Z,8.79
2019-05-05T09:03:15.047Z,8.77
2019-05-05T09:04:15.026Z,8.80
2019-05-05T09:05:15.099Z,8.86
2019-05-05T09:06:15.016Z,8.83
2019-05-05T09:07:15.006Z,8.73
2019-05-05T09:08:14.999Z,8.68
2019-05-05T09:09:14.990Z,8.62
2019-05-05T09:10:15.048Z,8.58
2019-05-05T09:11:14.960Z,8.47
2019-05-05T09:12:14.937Z,8.43
2019-05-05T09:13:14.927Z,8.41
2019-05-05T09:14:15.103Z,8.38
2019-05-05T09:15:14.998Z,8.40
2019-05-05T09:16:14.908Z,8.52
2019-05-05T09:17:14.888Z,8.63
2019-05-05T09:18:14.878Z,8.74
2019-05-05T09:19:14.881Z,8.86
2019-05-05T09:20:14.864Z,8.98
2019-05-05T09:21:14.939Z,9.10
2019-05-05T09:22:14.842Z,9.20
2019-05-05T09:23:14.994Z,9.21
2019-05-05T09:24:14.818Z,9.21
2019-05-05T09:25:14.779Z,9.17
2019-05-05T09:26:14.879Z,9.14
2019-05-05T09:27:14.784Z,9.10
2019-05-05T09:28:14.896Z,8.96
2019-05-05T09:29:14.749Z,8.86
2019-05-05T09:30:14.750Z,8.83
2019-05-05T09:31:14.814Z,8.79
2019-05-05T09:32:14.723Z,8.79
2019-05-05T09:33:18.069Z,8.79
2019-05-05T09:34:14.762Z,8.81
2019-05-05T09:35:14.702Z,8.96
2019-05-05T09:36:14.678Z,9.15
2019-05-05T09:37:14.750Z,9.35
2019-05-05T09:38:14.886Z,9.46
2019-05-05T09:39:14.664Z,9.64
2019-05-05T09:40:14.640Z,9.86
2019-05-05T09:41:14.634Z,10.17
2019-05-05T09:42:14.768Z,10.48
2019-05-05T09:43:14.956Z,10.71
2019-05-05T09:44:14.600Z,11.02
2019-05-05T09:45:14.582Z,11.33
2019-05-05T09:46:14.582Z,11.43
2019-05-05T09:47:14.702Z,11.40
2019-05-05T09:48:14.552Z,11.35
2019-05-05T09:49:14.542Z,11.09
2019-05-05T09:50:14.535Z,10.96
2019-05-05T09:51:14.522Z,10.94
2019-05-05T09:52:14.514Z,10.92
2019-05-05T09:53:14.732Z,10.84
2019-05-05T09:54:17.212Z,10.78
2019-05-05T09:55:14.473Z,10.76
2019-05-05T09:56:14.664Z,10.76
2019-05-05T09:57:14.685Z,10.76
2019-05-05T09:58:14.505Z,10.79
2019-05-05T09:59:14.415Z,10.79
2019-05-05T10:00:14.436Z,10.71
2019-05-05T10:01:14.404Z,10.44
2019-05-05T10:02:14.404Z,10.26
2019-05-05T10:03:14.702Z,10.15
2019-05-05T10:04:14.381Z,10.11
2019-05-05T10:05:14.638Z,10.04
2019-05-05T10:06:14.408Z,9.96
2019-05-05T10:07:14.334Z,9.81
2019-05-05T10:08:14.462Z,9.65
2019-05-05T10:09:14.398Z,9.56
2019-05-05T10:10:14.297Z,9.42
2019-05-05T10:11:16.463Z,9.28
2019-05-05T10:12:14.286Z,9.11
2019-05-05T10:13:15.039Z,9.01
2019-05-05T10:14:14.487Z,8.98
2019-05-05T10:15:14.274Z,8.98
2019-05-05T10:16:14.407Z,8.96
2019-05-05T10:17:14.290Z,8.95
2019-05-05T10:18:14.354Z,8.96
2019-05-05T10:19:14.298Z,8.96
2019-05-05T10:20:14.611Z,8.95
2019-05-05T10:21:17.459Z,8.92
2019-05-05T10:22:14.769Z,8.92
2019-05-05T10:23:14.341Z,8.91
2019-05-05T10:24:27.126Z,8.80
2019-05-05T10:25:15.139Z,8.63
2019-05-05T10:26:14.963Z,8.53
2019-05-05T10:27:14.119Z,8.53
2019-05-05T10:28:14.108Z,8.55
2019-05-05T10:29:14.098Z,8.55
2019-05-05T10:30:14.348Z,8.59
2019-05-05T10:31:14.079Z,8.65
2019-05-05T10:32:14.070Z,8.65
2019-05-05T10:33:14.406Z,8.70
2019-05-05T10:34:14.145Z,8.80
2019-05-05T10:35:14.376Z,8.87
2019-05-05T10:36:14.018Z,8.96
2019-05-05T10:37:14.324Z,9.05
2019-05-05T10:38:14.417Z,9.20
2019-05-05T10:39:14.100Z,9.32
2019-05-05T10:40:13.988Z,9.47
2019-05-05T10:41:13.981Z,9.66
2019-05-05T10:42:14.554Z,9.87
2019-05-05T10:43:14.820Z,10.07
2019-05-05T10:44:14.204Z,10.33
2019-05-05T10:45:14.010Z,10.52
2019-05-05T10:46:14.428Z,10.68
2019-05-05T10:47:13.918Z,10.81
2019-05-05T10:48:14.518Z,10.96
2019-05-05T10:49:13.884Z,11.03
2019-05-05T10:50:14.008Z,11.07
2019-05-05T10:51:13.943Z,11.04
2019-05-05T10:52:14.365Z,10.94
2019-05-05T10:53:13.887Z,10.86
2019-05-05T10:54:14.274Z,10.73
2019-05-05T10:55:14.543Z,10.53
2019-05-05T10:56:13.863Z,10.29
2019-05-05T10:57:14.839Z,9.99
2019-05-05T10:58:13.924Z,9.76
2019-05-05T10:59:13.771Z,9.68
2019-05-05T11:00:15.624Z,9.56
2019-05-05T11:01:14.497Z,9.48
2019-05-05T11:02:14.161Z,9.54
2019-05-05T11:03:14.907Z,9.64
2019-05-05T11:04:13.713Z,9.83
2019-05-05T11:05:13.704Z,9.99
2019-05-05T11:06:13.781Z,10.15
2019-05-05T11:07:14.556Z,10.41
2019-05-05T11:08:13.851Z,10.67
2019-05-05T11:09:14.020Z,10.97
2019-05-05T11:10:14.142Z,11.25
2019-05-05T11:11:13.807Z,11.58
2019-05-05T11:12:14.263Z,11.75
2019-05-05T11:13:13.637Z,11.90
2019-05-05T11:14:14.269Z,12.02
2019-05-05T11:15:14.128Z,12.09
2019-05-05T11:16:14.506Z,11.99
2019-05-05T11:17:14.441Z,11.82
2019-05-05T11:18:14.833Z,11.73
2019-05-05T11:19:13.808Z,11.62
2019-05-05T11:20:14.356Z,11.57
2019-05-05T11:21:14.453Z,11.49
2019-05-05T11:22:14.661Z,11.47
2019-05-05T11:23:14.955Z,11.43
2019-05-05T11:24:14.674Z,11.40
2019-05-05T11:25:13.942Z,11.35
2019-05-05T11:26:14.372Z,11.28
2019-05-05T11:27:13.468Z,11.21
2019-05-05T11:28:13.496Z,11.11
2019-05-05T11:29:13.646Z,11.00
2019-05-05T11:30:14.341Z,10.91
2019-05-05T11:31:13.786Z,10.79
2019-05-05T11:32:15.332Z,10.70
2019-05-05T11:33:14.264Z,10.59
2019-05-05T11:34:14.079Z,10.51
2019-05-05T11:35:13.980Z,10.45
2019-05-05T11:36:13.683Z,10.41
2019-05-05T11:37:13.520Z,10.42
2019-05-05T11:38:14.193Z,10.44
2019-05-05T11:39:14.781Z,10.42
2019-05-05T11:40:13.522Z,10.40
2019-05-05T11:41:14.366Z,10.42
2019-05-05T11:42:14.637Z,10.44
2019-05-05T11:43:14.218Z,10.47
2019-05-05T11:44:15.199Z,10.47
2019-05-05T11:45:14.867Z,10.51
2019-05-05T11:46:14.126Z,10.60
2019-05-05T11:47:14.014Z,10.68
2019-05-05T11:48:14.834Z,10.76
2019-05-05T11:49:13.893Z,10.86
2019-05-05T11:50:13.230Z,10.97
2019-05-05T11:51:15.117Z,11.14
2019-05-05T11:52:13.281Z,11.29
2019-05-05T11:53:14.560Z,11.44
2019-05-05T11:54:14.032Z,11.60
2019-05-05T11:55:14.969Z,11.73
2019-05-05T11:56:14.484Z,11.85
2019-05-05T11:57:13.597Z,11.96
2019-05-05T11:58:14.372Z,11.98
2019-05-05T11:59:14.434Z,12.01
2019-05-05T12:00:14.148Z,12.07
2019-05-05T12:01:13.850Z,12.05
2019-05-05T12:02:13.965Z,12.04
2019-05-05T12:03:14.355Z,12.01
2019-05-05T12:04:14.547Z,11.94
2019-05-05T12:05:14.092Z,11.82
2019-05-05T12:06:14.735Z,11.73
2019-05-05T12:07:14.640Z,11.69
2019-05-05T12:08:14.671Z,11.62
2019-05-05T12:09:13.961Z,11.52
2019-05-05T12:10:13.003Z,11.43
2019-05-05T12:11:14.887Z,11.40
2019-05-05T12:12:14.259Z,11.37
2019-05-05T12:13:14.804Z,11.35
2019-05-05T12:14:14.311Z,11.28
2019-05-05T12:15:13.455Z,11.25
2019-05-05T12:16:13.696Z,11.19
2019-05-05T12:17:13.909Z,11.22
2019-05-05T12:18:14.350Z,11.32
2019-05-05T12:19:13.686Z,11.52
2019-05-05T12:20:13.605Z,11.78
2019-05-05T12:21:13.975Z,12.07
2019-05-05T12:22:12.886Z,12.32
2019-05-05T12:23:12.855Z,12.57
2019-05-05T12:24:14.307Z,12.79
2019-05-05T12:25:25.231Z,13.01
2019-05-05T12:26:13.858Z,13.19
2019-05-05T12:27:14.120Z,13.36
2019-05-05T12:28:13.720Z,13.48
2019-05-05T12:29:14.102Z,13.66
2019-05-05T12:30:14.176Z,13.82
2019-05-05T12:31:14.150Z,13.95
2019-05-05T12:32:14.838Z,14.09
2019-05-05T12:33:13.804Z,14.20
2019-05-05T12:34:12.740Z,14.22
2019-05-05T12:35:14.780Z,14.09
2019-05-05T12:36:14.885Z,14.02
2019-05-05T12:37:14.245Z,13.89
2019-05-05T12:38:12.700Z,13.85
2019-05-05T12:39:14.193Z,13.75
2019-05-05T12:40:14.325Z,13.63
2019-05-05T12:41:14.623Z,13.42
2019-05-05T12:42:14.037Z,13.19
2019-05-05T12:43:14.193Z,12.89
2019-05-05T12:44:14.272Z,12.71
2019-05-05T12:45:13.772Z,12.57
2019-05-05T12:46:13.814Z,12.45
2019-05-05T12:47:14.407Z,12.35
2019-05-05T12:48:13.438Z,12.28
2019-05-05T12:49:13.850Z,12.20
2019-05-05T12:50:12.564Z,12.17
2019-05-05T12:51:14.568Z,12.17
2019-05-05T12:52:13.897Z,12.13
2019-05-05T12:53:14.420Z,12.04
2019-05-05T12:54:14.490Z,11.98
2019-05-05T12:55:14.304Z,11.94
2019-05-05T12:56:14.479Z,11.88
2019-05-05T12:57:13.702Z,11.79
2019-05-05T12:58:13.896Z,11.76
2019-05-05T12:59:14.284Z,11.67
2019-05-05T13:00:14.506Z,11.67
2019-05-05T13:01:14.306Z,11.60
2019-05-05T13:02:14.233Z,11.55
2019-05-05T13:03:13.534Z,11.46
2019-05-05T13:04:14.146Z,11.40
2019-05-05T13:05:14.341Z,11.29
2019-05-05T13:06:14.483Z,11.14
2019-05-05T13:07:13.615Z,11.00
2019-05-05T13:08:14.205Z,10.96
2019-05-05T13:09:13.618Z,10.94
2019-05-05T13:10:13.751Z,11.00
2019-05-05T13:11:12.326Z,11.09
2019-05-05T13:12:12.326Z,11.19